sensor_id;sensor_type;location;lat;lon;timestamp;temperature;humidity
1129;DHT22;553;51.038;7.216;2023-05-07T00:00:19;15.90;99.90
1129;DHT22;553;51.038;7.216;2023-05-07T00:02:46;15.90;99.90
1129;DHT22;553;51.038;7.216;2023-05-07T00:05:13;15.90;99.90
1129;DHT22;553;51.038;7.216;2023-05-07T00:07:41;15.90;99.90
1129;DHT22;553;51.038;7.216;2023-05-07T00:10:09;15.80;99.90
1129;DHT22;553;51.038;7.216;2023-05-07T00:12:37;15.80;99.90
1129;DHT22;553;51.038;7.216;2023-05-07T00:15:04;15.80;99.90
1129;DHT22;553;51.038;7.216;2023-05-07T00:17:32;15.80;99.90
1129;DHT22;553;51.038;7.216;2023-05-07T00:19:59;15.80;99.90
1129;DHT22;553;51.038;7.216;2023-05-07T00:22:26;15.90;99.90
1129;DHT22;553;51.038;7.216;2023-05-07T00:24:53;15.80;99.90
1129;DHT22;553;51.038;7.216;2023-05-07T00:27:19;15.90;99.90
1129;DHT22;553;51.038;7.216;2023-05-07T00:29:46;15.90;99.90
1129;DHT22;553;51.038;7.216;2023-05-07T00:32:13;15.90;99.90
1129;DHT22;553;51.038;7.216;2023-05-07T00:34:40;15.70;99.90
1129;DHT22;553;51.038;7.216;2023-05-07T00:37:07;15.80;99.90
1129;DHT22;553;51.038;7.216;2023-05-07T00:39:36;15.80;99.90
1129;DHT22;553;51.038;7.216;2023-05-07T00:42:04;15.80;99.90
1129;DHT22;553;51.038;7.216;2023-05-07T00:44:30;15.70;99.90
1129;DHT22;553;51.038;7.216;2023-05-07T00:46:57;15.80;99.90
1129;DHT22;553;51.038;7.216;2023-05-07T00:49:38;15.70;99.90
1129;DHT22;553;51.038;7.216;2023-05-07T00:52:07;15.70;99.90
1129;DHT22;553;51.038;7.216;2023-05-07T00:54:35;15.80;99.90
1129;DHT22;553;51.038;7.216;2023-05-07T00:57:03;15.80;99.90
1129;DHT22;553;51.038;7.216;2023-05-07T00:59:32;15.70;99.90
1129;DHT22;553;51.038;7.216;2023-05-07T01:01:59;15.70;99.90
1129;DHT22;553;51.038;7.216;2023-05-07T01:04:26;15.60;99.90
1129;DHT22;553;51.038;7.216;2023-05-07T01:06:55;15.60;99.90
1129;DHT22;553;51.038;7.216;2023-05-07T01:09:24;15.60;99.90
1129;DHT22;553;51.038;7.216;2023-05-07T01:11:52;15.60;99.90
1129;DHT22;553;51.038;7.216;2023-05-07T01:14:20;15.60;99.90
1129;DHT22;553;51.038;7.216;2023-05-07T01:16:48;15.60;99.90
1129;DHT22;553;51.038;7.216;2023-05-07T01:19:18;15.50;99.90
1129;DHT22;553;51.038;7.216;2023-05-07T01:21:48;15.60;99.90
1129;DHT22;553;51.038;7.216;2023-05-07T01:24:18;15.60;99.90
1129;DHT22;553;51.038;7.216;2023-05-07T01:26:45;15.60;99.90
1129;DHT22;553;51.038;7.216;2023-05-07T01:29:14;15.60;99.90
1129;DHT22;553;51.038;7.216;2023-05-07T01:31:42;15.60;99.90
1129;DHT22;553;51.038;7.216;2023-05-07T01:34:11;15.60;99.90
1129;DHT22;553;51.038;7.216;2023-05-07T01:36:39;15.50;99.90
1129;DHT22;553;51.038;7.216;2023-05-07T01:39:08;15.50;99.90
1129;DHT22;553;51.038;7.216;2023-05-07T01:41:36;15.50;99.90
1129;DHT22;553;51.038;7.216;2023-05-07T01:44:03;15.50;99.90
1129;DHT22;553;51.038;7.216;2023-05-07T01:46:31;15.40;99.90
1129;DHT22;553;51.038;7.216;2023-05-07T01:48:59;15.40;99.90
1129;DHT22;553;51.038;7.216;2023-05-07T01:51:26;15.50;99.90
1129;DHT22;553;51.038;7.216;2023-05-07T01:53:54;15.50;99.90
1129;DHT22;553;51.038;7.216;2023-05-07T01:56:22;15.40;99.90
1129;DHT22;553;51.038;7.216;2023-05-07T01:58:49;15.50;99.90
1129;DHT22;553;51.038;7.216;2023-05-07T02:01:17;15.50;99.90
1129;DHT22;553;51.038;7.216;2023-05-07T02:03:44;15.60;99.90
1129;DHT22;553;51.038;7.216;2023-05-07T02:06:19;15.60;99.90
1129;DHT22;553;51.038;7.216;2023-05-07T02:08:47;15.70;99.90
1129;DHT22;553;51.038;7.216;2023-05-07T02:11:14;15.70;99.90
1129;DHT22;553;51.038;7.216;2023-05-07T02:13:41;15.60;99.90
1129;DHT22;553;51.038;7.216;2023-05-07T02:16:08;15.60;99.90
1129;DHT22;553;51.038;7.216;2023-05-07T02:18:35;15.60;99.90
1129;DHT22;553;51.038;7.216;2023-05-07T02:21:02;15.50;99.90
1129;DHT22;553;51.038;7.216;2023-05-07T02:23:29;15.50;99.90
1129;DHT22;553;51.038;7.216;2023-05-07T02:25:56;15.40;99.90
1129;DHT22;553;51.038;7.216;2023-05-07T02:28:23;15.40;99.90
1129;DHT22;553;51.038;7.216;2023-05-07T02:30:57;15.30;99.90
1129;DHT22;553;51.038;7.216;2023-05-07T02:33:28;15.30;99.90
1129;DHT22;553;51.038;7.216;2023-05-07T02:35:55;15.30;99.90
1129;DHT22;553;51.038;7.216;2023-05-07T02:38:22;15.30;99.90
1129;DHT22;553;51.038;7.216;2023-05-07T02:40:49;15.30;99.90
1129;DHT22;553;51.038;7.216;2023-05-07T02:43:16;15.30;99.90
1129;DHT22;553;51.038;7.216;2023-05-07T02:45:46;15.40;99.90
1129;DHT22;553;51.038;7.216;2023-05-07T02:48:14;15.40;99.90
1129;DHT22;553;51.038;7.216;2023-05-07T02:50:40;15.30;99.90
1129;DHT22;553;51.038;7.216;2023-05-07T02:53:07;15.40;99.90
1129;DHT22;553;51.038;7.216;2023-05-07T02:55:34;15.40;99.90
1129;DHT22;553;51.038;7.216;2023-05-07T02:58:00;15.30;99.90
1129;DHT22;553;51.038;7.216;2023-05-07T03:00:30;15.30;99.90
1129;DHT22;553;51.038;7.216;2023-05-07T03:03:08;15.30;99.90
1129;DHT22;553;51.038;7.216;2023-05-07T03:05:35;15.30;99.90
1129;DHT22;553;51.038;7.216;2023-05-07T03:08:02;15.30;99.90
1129;DHT22;553;51.038;7.216;2023-05-07T03:10:30;15.30;99.90
1129;DHT22;553;51.038;7.216;2023-05-07T03:12:57;15.30;99.90
1129;DHT22;553;51.038;7.216;2023-05-07T03:15:23;15.40;99.90
1129;DHT22;553;51.038;7.216;2023-05-07T03:17:51;15.30;99.90
1129;DHT22;553;51.038;7.216;2023-05-07T03:20:18;15.30;99.90
1129;DHT22;553;51.038;7.216;2023-05-07T03:22:45;15.30;99.90
1129;DHT22;553;51.038;7.216;2023-05-07T03:25:12;15.20;99.90
1129;DHT22;553;51.038;7.216;2023-05-07T03:27:40;15.20;99.90
1129;DHT22;553;51.038;7.216;2023-05-07T03:30:08;15.20;99.90
1129;DHT22;553;51.038;7.216;2023-05-07T03:32:36;15.10;99.90
1129;DHT22;553;51.038;7.216;2023-05-07T03:35:07;15.10;99.90
1129;DHT22;553;51.038;7.216;2023-05-07T03:37:34;15.00;99.90
1129;DHT22;553;51.038;7.216;2023-05-07T03:40:01;15.00;99.90
1129;DHT22;553;51.038;7.216;2023-05-07T03:42:31;15.00;99.90
1129;DHT22;553;51.038;7.216;2023-05-07T03:44:58;14.90;99.90
1129;DHT22;553;51.038;7.216;2023-05-07T03:47:25;14.90;99.90
1129;DHT22;553;51.038;7.216;2023-05-07T03:49:52;14.90;99.90
1129;DHT22;553;51.038;7.216;2023-05-07T03:52:22;14.90;99.90
1129;DHT22;553;51.038;7.216;2023-05-07T03:54:54;14.80;99.90
1129;DHT22;553;51.038;7.216;2023-05-07T03:57:21;14.90;99.90
1129;DHT22;553;51.038;7.216;2023-05-07T03:59:48;14.80;99.90
1129;DHT22;553;51.038;7.216;2023-05-07T04:02:15;14.80;99.90
1129;DHT22;553;51.038;7.216;2023-05-07T04:04:42;14.80;99.90
1129;DHT22;553;51.038;7.216;2023-05-07T04:07:08;14.70;99.90
1129;DHT22;553;51.038;7.216;2023-05-07T04:09:40;14.70;99.90
1129;DHT22;553;51.038;7.216;2023-05-07T04:12:06;14.70;99.90
1129;DHT22;553;51.038;7.216;2023-05-07T04:14:34;14.80;99.90
1129;DHT22;553;51.038;7.216;2023-05-07T04:17:01;14.70;99.90
1129;DHT22;553;51.038;7.216;2023-05-07T04:19:29;14.70;99.90
1129;DHT22;553;51.038;7.216;2023-05-07T04:21:56;14.70;99.90
1129;DHT22;553;51.038;7.216;2023-05-07T04:24:23;14.80;99.90
1129;DHT22;553;51.038;7.216;2023-05-07T04:26:50;14.80;99.90
1129;DHT22;553;51.038;7.216;2023-05-07T04:29:19;14.80;99.90
1129;DHT22;553;51.038;7.216;2023-05-07T04:31:46;14.80;99.90
1129;DHT22;553;51.038;7.216;2023-05-07T04:34:13;14.80;99.90
1129;DHT22;553;51.038;7.216;2023-05-07T04:36:42;14.90;99.90
1129;DHT22;553;51.038;7.216;2023-05-07T04:39:10;14.90;99.90
1129;DHT22;553;51.038;7.216;2023-05-07T04:41:40;14.90;99.90
1129;DHT22;553;51.038;7.216;2023-05-07T04:44:07;15.00;99.90
1129;DHT22;553;51.038;7.216;2023-05-07T04:46:35;15.00;99.90
1129;DHT22;553;51.038;7.216;2023-05-07T04:49:02;15.10;99.90
1129;DHT22;553;51.038;7.216;2023-05-07T04:51:29;15.00;99.90
1129;DHT22;553;51.038;7.216;2023-05-07T04:53:57;15.10;99.90
1129;DHT22;553;51.038;7.216;2023-05-07T04:56:24;15.10;99.90
1129;DHT22;553;51.038;7.216;2023-05-07T04:58:53;15.10;99.90
1129;DHT22;553;51.038;7.216;2023-05-07T05:01:21;15.10;99.90
1129;DHT22;553;51.038;7.216;2023-05-07T05:03:48;15.10;99.90
1129;DHT22;553;51.038;7.216;2023-05-07T05:06:15;15.10;99.90
1129;DHT22;553;51.038;7.216;2023-05-07T05:08:41;15.10;99.90
1129;DHT22;553;51.038;7.216;2023-05-07T05:11:09;15.20;99.90
1129;DHT22;553;51.038;7.216;2023-05-07T05:13:36;15.20;99.90
1129;DHT22;553;51.038;7.216;2023-05-07T05:16:10;15.30;99.90
1129;DHT22;553;51.038;7.216;2023-05-07T05:18:38;15.40;99.90
1129;DHT22;553;51.038;7.216;2023-05-07T05:21:05;15.40;99.90
1129;DHT22;553;51.038;7.216;2023-05-07T05:23:32;15.60;99.90
1129;DHT22;553;51.038;7.216;2023-05-07T05:26:00;15.70;99.90
1129;DHT22;553;51.038;7.216;2023-05-07T05:28:30;15.70;99.90
1129;DHT22;553;51.038;7.216;2023-05-07T05:30:57;15.70;99.90
1129;DHT22;553;51.038;7.216;2023-05-07T05:33:26;15.80;99.90
1129;DHT22;553;51.038;7.216;2023-05-07T05:35:54;15.90;99.90
1129;DHT22;553;51.038;7.216;2023-05-07T05:38:21;15.90;99.90
1129;DHT22;553;51.038;7.216;2023-05-07T05:40:48;16.00;99.90
1129;DHT22;553;51.038;7.216;2023-05-07T05:43:15;16.00;99.90
1129;DHT22;553;51.038;7.216;2023-05-07T05:45:42;16.00;99.90
1129;DHT22;553;51.038;7.216;2023-05-07T05:48:09;16.10;99.90
1129;DHT22;553;51.038;7.216;2023-05-07T05:50:37;16.10;99.90
1129;DHT22;553;51.038;7.216;2023-05-07T05:53:05;16.10;99.90
1129;DHT22;553;51.038;7.216;2023-05-07T05:55:32;16.10;99.90
1129;DHT22;553;51.038;7.216;2023-05-07T05:58:00;16.10;99.90
1129;DHT22;553;51.038;7.216;2023-05-07T06:00:29;16.20;99.90
1129;DHT22;553;51.038;7.216;2023-05-07T06:03:01;16.20;99.90
1129;DHT22;553;51.038;7.216;2023-05-07T06:05:28;16.30;99.90
1129;DHT22;553;51.038;7.216;2023-05-07T06:07:56;16.20;99.90
1129;DHT22;553;51.038;7.216;2023-05-07T06:10:23;16.30;99.90
1129;DHT22;553;51.038;7.216;2023-05-07T06:12:50;16.40;99.90
1129;DHT22;553;51.038;7.216;2023-05-07T06:15:17;16.40;99.90
1129;DHT22;553;51.038;7.216;2023-05-07T06:17:45;16.40;99.90
1129;DHT22;553;51.038;7.216;2023-05-07T06:20:11;16.40;99.90
1129;DHT22;553;51.038;7.216;2023-05-07T06:22:39;16.50;99.90
1129;DHT22;553;51.038;7.216;2023-05-07T06:25:08;16.40;99.90
1129;DHT22;553;51.038;7.216;2023-05-07T06:27:35;16.50;99.90
1129;DHT22;553;51.038;7.216;2023-05-07T06:30:02;16.60;99.90
1129;DHT22;553;51.038;7.216;2023-05-07T06:32:29;16.50;99.90
1129;DHT22;553;51.038;7.216;2023-05-07T06:34:56;16.60;99.90
1129;DHT22;553;51.038;7.216;2023-05-07T06:37:22;16.60;99.90
1129;DHT22;553;51.038;7.216;2023-05-07T06:39:53;16.60;99.90
1129;DHT22;553;51.038;7.216;2023-05-07T06:42:21;16.80;99.90
1129;DHT22;553;51.038;7.216;2023-05-07T06:44:49;16.80;99.90
1129;DHT22;553;51.038;7.216;2023-05-07T06:47:17;16.80;99.90
1129;DHT22;553;51.038;7.216;2023-05-07T06:49:48;16.70;99.90
1129;DHT22;553;51.038;7.216;2023-05-07T06:52:18;16.70;99.90
1129;DHT22;553;51.038;7.216;2023-05-07T06:54:45;16.80;99.90
1129;DHT22;553;51.038;7.216;2023-05-07T06:57:15;16.90;99.90
1129;DHT22;553;51.038;7.216;2023-05-07T06:59:41;16.90;99.90
1129;DHT22;553;51.038;7.216;2023-05-07T07:02:09;17.00;99.90
1129;DHT22;553;51.038;7.216;2023-05-07T07:04:36;17.10;99.90
1129;DHT22;553;51.038;7.216;2023-05-07T07:07:07;17.20;99.90
1129;DHT22;553;51.038;7.216;2023-05-07T07:09:35;17.30;99.80
1129;DHT22;553;51.038;7.216;2023-05-07T07:12:03;17.40;99.90
1129;DHT22;553;51.038;7.216;2023-05-07T07:14:30;17.40;99.70
1129;DHT22;553;51.038;7.216;2023-05-07T07:16:57;17.60;99.10
1129;DHT22;553;51.038;7.216;2023-05-07T07:19:25;17.60;98.90
1129;DHT22;553;51.038;7.216;2023-05-07T07:21:54;17.80;99.00
1129;DHT22;553;51.038;7.216;2023-05-07T07:24:21;17.80;98.90
1129;DHT22;553;51.038;7.216;2023-05-07T07:26:52;17.90;98.60
1129;DHT22;553;51.038;7.216;2023-05-07T07:29:20;18.10;98.70
1129;DHT22;553;51.038;7.216;2023-05-07T07:31:48;18.40;97.20
1129;DHT22;553;51.038;7.216;2023-05-07T07:34:17;18.60;97.50
1129;DHT22;553;51.038;7.216;2023-05-07T07:36:44;19.00;96.90
1129;DHT22;553;51.038;7.216;2023-05-07T07:39:15;19.20;96.00
1129;DHT22;553;51.038;7.216;2023-05-07T07:41:44;19.60;95.60
1129;DHT22;553;51.038;7.216;2023-05-07T07:44:11;19.70;95.90
1129;DHT22;553;51.038;7.216;2023-05-07T07:46:45;19.90;93.50
1129;DHT22;553;51.038;7.216;2023-05-07T07:49:11;20.00;94.10
1129;DHT22;553;51.038;7.216;2023-05-07T07:51:38;20.20;93.30
1129;DHT22;553;51.038;7.216;2023-05-07T07:54:05;20.40;92.90
1129;DHT22;553;51.038;7.216;2023-05-07T07:56:33;20.70;92.20
1129;DHT22;553;51.038;7.216;2023-05-07T07:59:02;20.80;91.50
1129;DHT22;553;51.038;7.216;2023-05-07T08:01:30;21.00;91.50
1129;DHT22;553;51.038;7.216;2023-05-07T08:03:58;21.20;90.40
1129;DHT22;553;51.038;7.216;2023-05-07T08:06:27;21.30;89.20
1129;DHT22;553;51.038;7.216;2023-05-07T08:08:54;21.50;89.80
1129;DHT22;553;51.038;7.216;2023-05-07T08:11:22;21.80;88.80
1129;DHT22;553;51.038;7.216;2023-05-07T08:13:49;21.90;88.50
1129;DHT22;553;51.038;7.216;2023-05-07T08:16:16;21.90;88.60
1129;DHT22;553;51.038;7.216;2023-05-07T08:18:43;21.90;86.60
1129;DHT22;553;51.038;7.216;2023-05-07T08:21:11;21.90;86.90
1129;DHT22;553;51.038;7.216;2023-05-07T08:23:38;21.60;87.10
1129;DHT22;553;51.038;7.216;2023-05-07T08:26:07;21.50;88.50
1129;DHT22;553;51.038;7.216;2023-05-07T08:28:35;21.50;88.30
1129;DHT22;553;51.038;7.216;2023-05-07T08:31:02;21.50;88.80
1129;DHT22;553;51.038;7.216;2023-05-07T08:33:33;21.30;87.50
1129;DHT22;553;51.038;7.216;2023-05-07T08:36:00;21.10;87.50
1129;DHT22;553;51.038;7.216;2023-05-07T08:38:27;21.00;87.90
1129;DHT22;553;51.038;7.216;2023-05-07T08:40:54;21.00;88.90
1129;DHT22;553;51.038;7.216;2023-05-07T08:43:21;21.10;89.60
1129;DHT22;553;51.038;7.216;2023-05-07T08:45:53;21.20;88.50
1129;DHT22;553;51.038;7.216;2023-05-07T08:48:25;21.30;88.10
1129;DHT22;553;51.038;7.216;2023-05-07T08:51:03;21.40;88.00
1129;DHT22;553;51.038;7.216;2023-05-07T08:53:31;21.40;88.00
1129;DHT22;553;51.038;7.216;2023-05-07T08:55:58;21.50;87.60
1129;DHT22;553;51.038;7.216;2023-05-07T08:58:27;21.50;87.00
1129;DHT22;553;51.038;7.216;2023-05-07T09:00:55;21.60;86.60
1129;DHT22;553;51.038;7.216;2023-05-07T09:03:23;21.70;86.30
1129;DHT22;553;51.038;7.216;2023-05-07T09:05:52;21.90;86.60
1129;DHT22;553;51.038;7.216;2023-05-07T09:08:27;22.10;85.70
1129;DHT22;553;51.038;7.216;2023-05-07T09:10:57;22.40;84.50
1129;DHT22;553;51.038;7.216;2023-05-07T09:13:23;22.60;84.20
1129;DHT22;553;51.038;7.216;2023-05-07T09:15:50;22.80;83.40
1129;DHT22;553;51.038;7.216;2023-05-07T09:18:18;23.00;83.50
1129;DHT22;553;51.038;7.216;2023-05-07T09:20:47;23.10;82.30
1129;DHT22;553;51.038;7.216;2023-05-07T09:23:16;23.10;82.80
1129;DHT22;553;51.038;7.216;2023-05-07T09:25:43;23.00;82.20
1129;DHT22;553;51.038;7.216;2023-05-07T09:28:23;23.30;81.60
1129;DHT22;553;51.038;7.216;2023-05-07T09:30:50;23.20;81.80
1129;DHT22;553;51.038;7.216;2023-05-07T09:33:16;23.20;81.80
1129;DHT22;553;51.038;7.216;2023-05-07T09:35:51;23.40;80.60
1129;DHT22;553;51.038;7.216;2023-05-07T09:38:21;23.50;80.20
1129;DHT22;553;51.038;7.216;2023-05-07T09:41:05;23.50;80.20
1129;DHT22;553;51.038;7.216;2023-05-07T09:43:37;23.50;79.90
1129;DHT22;553;51.038;7.216;2023-05-07T09:46:11;23.40;80.20
1129;DHT22;553;51.038;7.216;2023-05-07T09:48:42;23.50;80.60
1129;DHT22;553;51.038;7.216;2023-05-07T09:51:24;23.50;80.20
1129;DHT22;553;51.038;7.216;2023-05-07T09:53:54;23.60;81.00
1129;DHT22;553;51.038;7.216;2023-05-07T09:56:24;23.70;79.60
1129;DHT22;553;51.038;7.216;2023-05-07T09:58:54;23.70;79.30
1129;DHT22;553;51.038;7.216;2023-05-07T10:01:21;23.70;79.90
1129;DHT22;553;51.038;7.216;2023-05-07T10:03:50;23.60;80.30
1129;DHT22;553;51.038;7.216;2023-05-07T10:06:19;23.80;80.00
1129;DHT22;553;51.038;7.216;2023-05-07T10:08:46;23.80;79.50
1129;DHT22;553;51.038;7.216;2023-05-07T10:11:14;23.80;79.30
1129;DHT22;553;51.038;7.216;2023-05-07T10:13:43;23.70;80.60
1129;DHT22;553;51.038;7.216;2023-05-07T10:16:10;23.60;79.80
1129;DHT22;553;51.038;7.216;2023-05-07T10:18:44;23.60;80.00
1129;DHT22;553;51.038;7.216;2023-05-07T10:21:19;23.50;80.00
1129;DHT22;553;51.038;7.216;2023-05-07T10:23:59;23.60;80.10
1129;DHT22;553;51.038;7.216;2023-05-07T10:26:30;23.60;79.40
1129;DHT22;553;51.038;7.216;2023-05-07T10:29:07;23.60;79.60
1129;DHT22;553;51.038;7.216;2023-05-07T10:34:44;23.70;81.00
1129;DHT22;553;51.038;7.216;2023-05-07T10:37:12;24.00;79.90
1129;DHT22;553;51.038;7.216;2023-05-07T10:39:40;24.20;78.70
1129;DHT22;553;51.038;7.216;2023-05-07T10:42:13;24.30;79.40
1129;DHT22;553;51.038;7.216;2023-05-07T10:44:45;24.30;78.90
1129;DHT22;553;51.038;7.216;2023-05-07T10:47:20;24.30;78.10
1129;DHT22;553;51.038;7.216;2023-05-07T10:52:24;24.40;76.80
1129;DHT22;553;51.038;7.216;2023-05-07T10:55:20;24.00;77.50
1129;DHT22;553;51.038;7.216;2023-05-07T10:57:56;23.80;77.90
1129;DHT22;553;51.038;7.216;2023-05-07T11:03:07;23.70;78.10
1129;DHT22;553;51.038;7.216;2023-05-07T11:06:09;23.50;77.40
1129;DHT22;553;51.038;7.216;2023-05-07T11:09:09;23.40;77.90
1129;DHT22;553;51.038;7.216;2023-05-07T11:11:52;23.60;78.10
1129;DHT22;553;51.038;7.216;2023-05-07T11:14:43;23.60;77.60
1129;DHT22;553;51.038;7.216;2023-05-07T11:17:14;23.80;78.30
1129;DHT22;553;51.038;7.216;2023-05-07T11:19:51;23.70;77.80
1129;DHT22;553;51.038;7.216;2023-05-07T11:22:37;23.60;77.10
1129;DHT22;553;51.038;7.216;2023-05-07T11:25:25;23.60;75.70
1129;DHT22;553;51.038;7.216;2023-05-07T11:28:07;23.60;78.00
1129;DHT22;553;51.038;7.216;2023-05-07T11:30:43;23.70;78.50
1129;DHT22;553;51.038;7.216;2023-05-07T11:33:17;23.70;79.10
1129;DHT22;553;51.038;7.216;2023-05-07T11:35:46;23.80;78.90
1129;DHT22;553;51.038;7.216;2023-05-07T11:38:17;23.90;79.10
1129;DHT22;553;51.038;7.216;2023-05-07T11:40:58;24.00;77.60
1129;DHT22;553;51.038;7.216;2023-05-07T11:43:27;24.00;76.70
1129;DHT22;553;51.038;7.216;2023-05-07T11:45:54;24.00;75.80
1129;DHT22;553;51.038;7.216;2023-05-07T11:48:21;23.90;78.20
1129;DHT22;553;51.038;7.216;2023-05-07T11:50:53;24.00;77.10
1129;DHT22;553;51.038;7.216;2023-05-07T11:53:20;24.10;77.30
1129;DHT22;553;51.038;7.216;2023-05-07T11:55:57;24.10;76.80
1129;DHT22;553;51.038;7.216;2023-05-07T11:58:24;24.10;76.70
1129;DHT22;553;51.038;7.216;2023-05-07T12:00:54;23.90;75.40
1129;DHT22;553;51.038;7.216;2023-05-07T12:03:21;23.90;76.20
1129;DHT22;553;51.038;7.216;2023-05-07T12:05:48;23.90;77.40
1129;DHT22;553;51.038;7.216;2023-05-07T12:08:19;23.90;77.10
1129;DHT22;553;51.038;7.216;2023-05-07T12:10:49;23.90;76.70
1129;DHT22;553;51.038;7.216;2023-05-07T12:13:22;23.90;76.70
1129;DHT22;553;51.038;7.216;2023-05-07T12:15:53;23.80;76.30
1129;DHT22;553;51.038;7.216;2023-05-07T12:18:22;23.60;77.30
1129;DHT22;553;51.038;7.216;2023-05-07T12:20:50;23.70;77.70
1129;DHT22;553;51.038;7.216;2023-05-07T12:23:17;23.80;77.40
1129;DHT22;553;51.038;7.216;2023-05-07T12:25:45;23.90;77.10
1129;DHT22;553;51.038;7.216;2023-05-07T12:28:16;24.00;76.60
1129;DHT22;553;51.038;7.216;2023-05-07T12:30:47;24.10;76.10
1129;DHT22;553;51.038;7.216;2023-05-07T12:33:19;23.90;76.20
1129;DHT22;553;51.038;7.216;2023-05-07T12:35:49;23.90;77.10
1129;DHT22;553;51.038;7.216;2023-05-07T12:38:17;23.90;77.90
1129;DHT22;553;51.038;7.216;2023-05-07T12:40:46;23.90;76.50
1129;DHT22;553;51.038;7.216;2023-05-07T12:43:29;24.00;77.70
1129;DHT22;553;51.038;7.216;2023-05-07T12:45:57;24.00;77.40
1129;DHT22;553;51.038;7.216;2023-05-07T12:48:26;24.00;75.90
1129;DHT22;553;51.038;7.216;2023-05-07T12:50:57;24.00;76.70
1129;DHT22;553;51.038;7.216;2023-05-07T12:53:25;24.00;75.90
1129;DHT22;553;51.038;7.216;2023-05-07T12:55:54;23.90;76.30
1129;DHT22;553;51.038;7.216;2023-05-07T12:58:33;23.90;76.40
1129;DHT22;553;51.038;7.216;2023-05-07T13:01:04;23.90;76.70
1129;DHT22;553;51.038;7.216;2023-05-07T13:03:34;23.90;75.70
1129;DHT22;553;51.038;7.216;2023-05-07T13:06:03;23.80;76.10
1129;DHT22;553;51.038;7.216;2023-05-07T13:08:40;23.80;76.10
1129;DHT22;553;51.038;7.216;2023-05-07T13:11:10;23.80;76.40
1129;DHT22;553;51.038;7.216;2023-05-07T13:13:40;23.80;77.50
1129;DHT22;553;51.038;7.216;2023-05-07T13:16:08;23.90;77.30
1129;DHT22;553;51.038;7.216;2023-05-07T13:18:37;23.90;77.50
1129;DHT22;553;51.038;7.216;2023-05-07T13:21:04;23.80;75.70
1129;DHT22;553;51.038;7.216;2023-05-07T13:23:31;23.80;76.20
1129;DHT22;553;51.038;7.216;2023-05-07T13:25:58;23.80;76.20
1129;DHT22;553;51.038;7.216;2023-05-07T13:28:26;23.80;76.30
1129;DHT22;553;51.038;7.216;2023-05-07T13:30:53;23.80;76.30
1129;DHT22;553;51.038;7.216;2023-05-07T13:33:21;23.80;77.60
1129;DHT22;553;51.038;7.216;2023-05-07T13:35:48;23.80;77.70
1129;DHT22;553;51.038;7.216;2023-05-07T13:38:14;23.80;77.90
1129;DHT22;553;51.038;7.216;2023-05-07T13:40:42;23.80;78.20
1129;DHT22;553;51.038;7.216;2023-05-07T13:43:09;23.80;77.70
1129;DHT22;553;51.038;7.216;2023-05-07T13:45:37;23.70;77.30
1129;DHT22;553;51.038;7.216;2023-05-07T13:48:04;23.50;78.00
1129;DHT22;553;51.038;7.216;2023-05-07T13:50:30;23.50;78.90
1129;DHT22;553;51.038;7.216;2023-05-07T13:52:57;23.50;79.80
1129;DHT22;553;51.038;7.216;2023-05-07T13:55:24;23.40;79.70
1129;DHT22;553;51.038;7.216;2023-05-07T13:57:58;23.50;79.50
1129;DHT22;553;51.038;7.216;2023-05-07T14:00:26;23.50;79.80
1129;DHT22;553;51.038;7.216;2023-05-07T14:02:54;23.40;79.00
1129;DHT22;553;51.038;7.216;2023-05-07T14:05:22;23.40;78.90
1129;DHT22;553;51.038;7.216;2023-05-07T14:07:53;23.40;78.50
1129;DHT22;553;51.038;7.216;2023-05-07T14:10:20;23.40;78.40
1129;DHT22;553;51.038;7.216;2023-05-07T14:12:47;23.40;78.70
1129;DHT22;553;51.038;7.216;2023-05-07T14:15:15;23.30;79.10
1129;DHT22;553;51.038;7.216;2023-05-07T14:17:43;23.50;78.50
1129;DHT22;553;51.038;7.216;2023-05-07T14:20:10;23.50;78.70
1129;DHT22;553;51.038;7.216;2023-05-07T14:22:37;23.50;78.80
1129;DHT22;553;51.038;7.216;2023-05-07T14:25:04;23.50;79.90
1129;DHT22;553;51.038;7.216;2023-05-07T14:27:33;23.40;81.20
1129;DHT22;553;51.038;7.216;2023-05-07T14:30:00;23.30;82.90
1129;DHT22;553;51.038;7.216;2023-05-07T14:32:26;23.10;82.70
1129;DHT22;553;51.038;7.216;2023-05-07T14:34:53;22.90;83.20
1129;DHT22;553;51.038;7.216;2023-05-07T14:37:20;22.50;85.00
1129;DHT22;553;51.038;7.216;2023-05-07T14:39:46;22.30;86.30
1129;DHT22;553;51.038;7.216;2023-05-07T14:42:16;22.00;87.40
1129;DHT22;553;51.038;7.216;2023-05-07T14:44:44;21.80;88.40
1129;DHT22;553;51.038;7.216;2023-05-07T14:47:12;21.60;87.50
1129;DHT22;553;51.038;7.216;2023-05-07T14:49:39;21.50;87.60
1129;DHT22;553;51.038;7.216;2023-05-07T14:52:07;21.40;88.40
1129;DHT22;553;51.038;7.216;2023-05-07T14:54:36;21.30;89.20
1129;DHT22;553;51.038;7.216;2023-05-07T14:57:05;21.30;89.80
1129;DHT22;553;51.038;7.216;2023-05-07T14:59:32;21.20;90.30
1129;DHT22;553;51.038;7.216;2023-05-07T15:01:59;21.30;90.00
1129;DHT22;553;51.038;7.216;2023-05-07T15:04:28;21.30;89.10
1129;DHT22;553;51.038;7.216;2023-05-07T15:06:54;21.40;91.10
1129;DHT22;553;51.038;7.216;2023-05-07T15:09:22;21.30;93.20
1129;DHT22;553;51.038;7.216;2023-05-07T15:11:49;20.80;99.90
1129;DHT22;553;51.038;7.216;2023-05-07T15:14:15;20.20;99.90
1129;DHT22;553;51.038;7.216;2023-05-07T15:16:42;19.50;99.90
1129;DHT22;553;51.038;7.216;2023-05-07T15:19:09;19.30;99.90
1129;DHT22;553;51.038;7.216;2023-05-07T15:21:36;19.00;99.90
1129;DHT22;553;51.038;7.216;2023-05-07T15:24:03;18.60;99.90
1129;DHT22;553;51.038;7.216;2023-05-07T15:26:30;18.40;99.90
1129;DHT22;553;51.038;7.216;2023-05-07T15:28:56;18.40;99.90
1129;DHT22;553;51.038;7.216;2023-05-07T15:31:26;18.30;99.90
1129;DHT22;553;51.038;7.216;2023-05-07T15:33:53;18.20;99.90
1129;DHT22;553;51.038;7.216;2023-05-07T15:36:20;18.10;99.90
1129;DHT22;553;51.038;7.216;2023-05-07T15:38:47;18.00;99.90
1129;DHT22;553;51.038;7.216;2023-05-07T15:41:14;17.80;99.90
1129;DHT22;553;51.038;7.216;2023-05-07T15:43:49;17.80;99.90
1129;DHT22;553;51.038;7.216;2023-05-07T15:46:18;18.00;99.90
1129;DHT22;553;51.038;7.216;2023-05-07T15:48:45;18.00;99.90
1129;DHT22;553;51.038;7.216;2023-05-07T15:51:12;18.10;99.90
1129;DHT22;553;51.038;7.216;2023-05-07T15:53:39;18.10;99.90
1129;DHT22;553;51.038;7.216;2023-05-07T15:56:06;18.20;99.90
1129;DHT22;553;51.038;7.216;2023-05-07T15:58:34;18.20;99.90
1129;DHT22;553;51.038;7.216;2023-05-07T16:01:02;18.30;99.90
1129;DHT22;553;51.038;7.216;2023-05-07T16:03:30;18.30;99.90
1129;DHT22;553;51.038;7.216;2023-05-07T16:05:57;18.30;99.90
1129;DHT22;553;51.038;7.216;2023-05-07T16:08:26;18.40;99.90
1129;DHT22;553;51.038;7.216;2023-05-07T16:10:53;18.50;99.90
1129;DHT22;553;51.038;7.216;2023-05-07T16:13:20;18.50;99.90
1129;DHT22;553;51.038;7.216;2023-05-07T16:15:47;18.30;99.90
1129;DHT22;553;51.038;7.216;2023-05-07T16:18:14;18.20;99.90
1129;DHT22;553;51.038;7.216;2023-05-07T16:20:45;18.20;99.90
1129;DHT22;553;51.038;7.216;2023-05-07T16:23:12;18.20;99.90
1129;DHT22;553;51.038;7.216;2023-05-07T16:25:38;18.20;99.90
1129;DHT22;553;51.038;7.216;2023-05-07T16:28:06;18.20;99.90
1129;DHT22;553;51.038;7.216;2023-05-07T16:30:33;18.30;99.90
1129;DHT22;553;51.038;7.216;2023-05-07T16:33:00;18.20;99.90
1129;DHT22;553;51.038;7.216;2023-05-07T16:35:27;18.30;99.90